sensor_id;sensor_type;location;lat;lon;timestamp;pressure;altitude;pressure_sealevel;temperature;humidity
71791;BME280;59638;52.126;5.434;2023-04-26T00:01:24;102114.28;;;2.69;100.00
71791;BME280;59638;52.126;5.434;2023-04-26T00:03:52;102103.13;;;2.66;100.00
71791;BME280;59638;52.126;5.434;2023-04-26T00:06:19;102110.25;;;2.61;100.00
71791;BME280;59638;52.126;5.434;2023-04-26T00:08:46;102105.19;;;2.56;100.00
71791;BME280;59638;52.126;5.434;2023-04-26T00:11:12;102103.72;;;2.49;100.00
71791;BME280;59638;52.126;5.434;2023-04-26T00:13:38;102113.72;;;2.36;100.00
71791;BME280;59638;52.126;5.434;2023-04-26T00:16:05;102114.91;;;2.28;100.00
71791;BME280;59638;52.126;5.434;2023-04-26T00:18:31;102117.78;;;2.20;100.00
71791;BME280;59638;52.126;5.434;2023-04-26T00:20:58;102116.38;;;2.10;100.00
71791;BME280;59638;52.126;5.434;2023-04-26T00:23:24;102116.59;;;2.04;100.00
71791;BME280;59638;52.126;5.434;2023-04-26T00:25:51;102115.09;;;1.97;100.00
71791;BME280;59638;52.126;5.434;2023-04-26T00:28:17;102111.97;;;1.87;100.00
71791;BME280;59638;52.126;5.434;2023-04-26T00:30:44;102105.31;;;1.78;100.00
71791;BME280;59638;52.126;5.434;2023-04-26T00:33:13;102104.69;;;1.70;100.00
71791;BME280;59638;52.126;5.434;2023-04-26T00:35:40;102104.88;;;1.64;100.00
71791;BME280;59638;52.126;5.434;2023-04-26T00:38:06;102105.06;;;1.58;100.00
71791;BME280;59638;52.126;5.434;2023-04-26T00:40:33;102110.47;;;1.52;100.00
71791;BME280;59638;52.126;5.434;2023-04-26T00:43:02;102102.97;;;1.43;100.00
71791;BME280;59638;52.126;5.434;2023-04-26T00:45:29;102104.97;;;1.34;100.00
71791;BME280;59638;52.126;5.434;2023-04-26T00:47:55;102098.31;;;1.24;100.00
71791;BME280;59638;52.126;5.434;2023-04-26T00:50:22;102101.94;;;1.20;100.00
71791;BME280;59638;52.126;5.434;2023-04-26T00:52:49;102100.31;;;1.16;100.00
71791;BME280;59638;52.126;5.434;2023-04-26T00:55:17;102097.09;;;1.08;100.00
71791;BME280;59638;52.126;5.434;2023-04-26T00:57:44;102087.91;;;0.96;100.00
71791;BME280;59638;52.126;5.434;2023-04-26T01:00:11;102100.25;;;0.90;100.00
71791;BME280;59638;52.126;5.434;2023-04-26T01:02:38;102099.53;;;0.85;100.00
71791;BME280;59638;52.126;5.434;2023-04-26T01:05:04;102097.06;;;0.80;100.00
71791;BME280;59638;52.126;5.434;2023-04-26T01:07:32;102098.94;;;0.75;100.00
71791;BME280;59638;52.126;5.434;2023-04-26T01:09:58;102102.56;;;0.69;100.00
71791;BME280;59638;52.126;5.434;2023-04-26T01:12:25;102106.13;;;0.65;100.00
71791;BME280;59638;52.126;5.434;2023-04-26T01:14:53;102119.22;;;0.62;100.00
71791;BME280;59638;52.126;5.434;2023-04-26T01:17:20;102106.34;;;0.58;100.00
71791;BME280;59638;52.126;5.434;2023-04-26T01:19:49;102112.56;;;0.53;100.00
71791;BME280;59638;52.126;5.434;2023-04-26T01:22:16;102110.97;;;0.48;100.00
71791;BME280;59638;52.126;5.434;2023-04-26T01:24:44;102109.28;;;0.47;100.00
71791;BME280;59638;52.126;5.434;2023-04-26T01:27:11;102118.94;;;0.42;100.00
71791;BME280;59638;52.126;5.434;2023-04-26T01:29:38;102123.31;;;0.40;100.00
71791;BME280;59638;52.126;5.434;2023-04-26T01:32:04;102119.03;;;0.37;100.00
71791;BME280;59638;52.126;5.434;2023-04-26T01:34:31;102119.13;;;0.34;100.00
71791;BME280;59638;52.126;5.434;2023-04-26T01:37:00;102118.31;;;0.32;100.00
71791;BME280;59638;52.126;5.434;2023-04-26T01:39:26;102113.16;;;0.31;100.00
71791;BME280;59638;52.126;5.434;2023-04-26T01:41:53;102121.84;;;0.30;100.00
71791;BME280;59638;52.126;5.434;2023-04-26T01:44:19;102121.00;;;0.29;100.00
71791;BME280;59638;52.126;5.434;2023-04-26T01:46:46;102113.25;;;0.28;100.00
71791;BME280;59638;52.126;5.434;2023-04-26T01:49:12;102115.03;;;0.25;100.00
71791;BME280;59638;52.126;5.434;2023-04-26T01:51:39;102113.31;;;0.24;100.00
71791;BME280;59638;52.126;5.434;2023-04-26T01:54:05;102108.13;;;0.24;100.00
71791;BME280;59638;52.126;5.434;2023-04-26T01:56:31;102107.22;;;0.25;100.00
71791;BME280;59638;52.126;5.434;2023-04-26T01:58:58;102111.63;;;0.23;100.00
71791;BME280;59638;52.126;5.434;2023-04-26T02:01:24;102101.34;;;0.20;100.00
71791;BME280;59638;52.126;5.434;2023-04-26T02:03:51;102104.88;;;0.16;100.00
71791;BME280;59638;52.126;5.434;2023-04-26T02:06:17;102103.25;;;0.12;100.00
71791;BME280;59638;52.126;5.434;2023-04-26T02:08:44;102106.78;;;0.10;100.00
71791;BME280;59638;52.126;5.434;2023-04-26T02:11:11;102103.41;;;0.06;100.00
71791;BME280;59638;52.126;5.434;2023-04-26T02:13:37;102113.88;;;0.03;100.00
71791;BME280;59638;52.126;5.434;2023-04-26T02:16:04;102105.41;;;-0.04;100.00
71791;BME280;59638;52.126;5.434;2023-04-26T02:18:30;102114.19;;;-0.09;100.00
71791;BME280;59638;52.126;5.434;2023-04-26T02:20:57;102112.53;;;-0.13;100.00
71791;BME280;59638;52.126;5.434;2023-04-26T02:23:23;102110.03;;;-0.16;100.00
71791;BME280;59638;52.126;5.434;2023-04-26T02:25:50;102105.78;;;-0.19;100.00
71791;BME280;59638;52.126;5.434;2023-04-26T02:28:16;102113.69;;;-0.23;100.00
71791;BME280;59638;52.126;5.434;2023-04-26T02:30:43;102103.50;;;-0.31;100.00
71791;BME280;59638;52.126;5.434;2023-04-26T02:33:10;102113.22;;;-0.41;100.00
71791;BME280;59638;52.126;5.434;2023-04-26T02:35:36;102106.44;;;-0.45;100.00
71791;BME280;59638;52.126;5.434;2023-04-26T02:38:03;102117.69;;;-0.47;100.00
71791;BME280;59638;52.126;5.434;2023-04-26T02:40:29;102116.09;;;-0.53;100.00
71791;BME280;59638;52.126;5.434;2023-04-26T02:42:56;102115.28;;;-0.55;100.00
71791;BME280;59638;52.126;5.434;2023-04-26T02:45:22;102104.91;;;-0.55;100.00
71791;BME280;59638;52.126;5.434;2023-04-26T02:47:49;102111.81;;;-0.54;100.00
71791;BME280;59638;52.126;5.434;2023-04-26T02:50:15;102111.81;;;-0.54;100.00
71791;BME280;59638;52.126;5.434;2023-04-26T02:52:42;102109.34;;;-0.60;100.00
71791;BME280;59638;52.126;5.434;2023-04-26T02:55:08;102107.69;;;-0.63;100.00
71791;BME280;59638;52.126;5.434;2023-04-26T02:57:35;102113.88;;;-0.68;100.00
71791;BME280;59638;52.126;5.434;2023-04-26T03:00:02;102111.34;;;-0.71;100.00
71791;BME280;59638;52.126;5.434;2023-04-26T03:02:30;102110.53;;;-0.73;100.00
71791;BME280;59638;52.126;5.434;2023-04-26T03:04:57;102105.38;;;-0.75;100.00
71791;BME280;59638;52.126;5.434;2023-04-26T03:07:24;102107.94;;;-0.73;100.00
71791;BME280;59638;52.126;5.434;2023-04-26T03:09:51;102096.69;;;-0.72;100.00
71791;BME280;59638;52.126;5.434;2023-04-26T03:12:17;102094.97;;;-0.73;100.00
71791;BME280;59638;52.126;5.434;2023-04-26T03:14:43;102104.56;;;-0.77;100.00
71791;BME280;59638;52.126;5.434;2023-04-26T03:17:10;102111.53;;;-0.80;100.00
71791;BME280;59638;52.126;5.434;2023-04-26T03:19:37;102100.41;;;-0.84;100.00
71791;BME280;59638;52.126;5.434;2023-04-26T03:22:03;102102.16;;;-0.85;100.00
71791;BME280;59638;52.126;5.434;2023-04-26T03:24:29;102102.06;;;-0.82;100.00
71791;BME280;59638;52.126;5.434;2023-04-26T03:26:56;102099.44;;;-0.80;100.00
71791;BME280;59638;52.126;5.434;2023-04-26T03:29:23;102089.06;;;-0.80;100.00
71791;BME280;59638;52.126;5.434;2023-04-26T03:31:49;102101.19;;;-0.80;100.00
71791;BME280;59638;52.126;5.434;2023-04-26T03:34:15;102102.16;;;-0.85;100.00
71791;BME280;59638;52.126;5.434;2023-04-26T03:36:42;102093.63;;;-0.90;100.00
71791;BME280;59638;52.126;5.434;2023-04-26T03:39:08;102098.84;;;-0.93;100.00
71791;BME280;59638;52.126;5.434;2023-04-26T03:41:35;102098.94;;;-0.96;100.00
71791;BME280;59638;52.126;5.434;2023-04-26T03:44:04;102093.00;;;-1.01;100.00
71791;BME280;59638;52.126;5.434;2023-04-26T03:46:31;102093.97;;;-1.05;100.00
71791;BME280;59638;52.126;5.434;2023-04-26T03:48:57;102098.28;;;-1.05;100.00
71791;BME280;59638;52.126;5.434;2023-04-26T03:51:24;102094.81;;;-1.04;100.00
71791;BME280;59638;52.126;5.434;2023-04-26T03:53:50;102100.88;;;-1.07;100.00
71791;BME280;59638;52.126;5.434;2023-04-26T03:56:17;102100.16;;;-1.12;100.00
71791;BME280;59638;52.126;5.434;2023-04-26T03:58:43;102099.28;;;-1.13;100.00
71791;BME280;59638;52.126;5.434;2023-04-26T04:01:10;102098.41;;;-1.12;100.00
71791;BME280;59638;52.126;5.434;2023-04-26T04:03:36;102102.75;;;-1.12;100.00
71791;BME280;59638;52.126;5.434;2023-04-26T04:06:06;102100.94;;;-1.08;100.00
71791;BME280;59638;52.126;5.434;2023-04-26T04:08:33;102094.84;;;-1.07;100.00
71791;BME280;59638;52.126;5.434;2023-04-26T04:10:59;102099.19;;;-1.08;100.00
71791;BME280;59638;52.126;5.434;2023-04-26T04:13:26;102099.06;;;-1.02;100.00
71791;BME280;59638;52.126;5.434;2023-04-26T04:15:53;102098.16;;;-1.01;100.00
71791;BME280;59638;52.126;5.434;2023-04-26T04:18:19;102102.44;;;-0.98;100.00
71791;BME280;59638;52.126;5.434;2023-04-26T04:20:46;102091.25;;;-0.99;100.00
71791;BME280;59638;52.126;5.434;2023-04-26T04:23:12;102092.09;;;-1.00;100.00
71791;BME280;59638;52.126;5.434;2023-04-26T04:25:38;102091.25;;;-0.99;100.00
71791;BME280;59638;52.126;5.434;2023-04-26T04:28:05;102093.81;;;-0.99;100.00
71791;BME280;59638;52.126;5.434;2023-04-26T04:30:31;102088.56;;;-0.96;100.00
71791;BME280;59638;52.126;5.434;2023-04-26T04:32:58;102093.63;;;-0.90;100.00
71791;BME280;59638;52.126;5.434;2023-04-26T04:35:25;102088.16;;;-0.77;100.00
71791;BME280;59638;52.126;5.434;2023-04-26T04:37:54;102088.03;;;-0.71;100.00
71791;BME280;59638;52.126;5.434;2023-04-26T04:40:24;102093.06;;;-0.65;100.00
71791;BME280;59638;52.126;5.434;2023-04-26T04:42:51;102085.97;;;-0.57;100.00
71791;BME280;59638;52.126;5.434;2023-04-26T04:45:19;102094.50;;;-0.52;100.00
71791;BME280;59638;52.126;5.434;2023-04-26T04:47:45;102090.00;;;-0.45;100.00
71791;BME280;59638;52.126;5.434;2023-04-26T04:50:12;102088.19;;;-0.42;100.00
71791;BME280;59638;52.126;5.434;2023-04-26T04:52:39;102097.50;;;-0.35;100.00
71791;BME280;59638;52.126;5.434;2023-04-26T04:55:06;102095.56;;;-0.27;100.00
71791;BME280;59638;52.126;5.434;2023-04-26T04:57:33;102097.22;;;-0.22;100.00
71791;BME280;59638;52.126;5.434;2023-04-26T04:59:59;102095.25;;;-0.13;100.00
71791;BME280;59638;52.126;5.434;2023-04-26T05:02:33;102100.25;;;-0.05;100.00
71791;BME280;59638;52.126;5.434;2023-04-26T05:04:59;102101.88;;;-0.01;100.00
71791;BME280;59638;52.126;5.434;2023-04-26T05:07:27;102108.78;;;0.00;100.00
71791;BME280;59638;52.126;5.434;2023-04-26T05:09:54;102111.34;;;0.02;100.00
71791;BME280;59638;52.126;5.434;2023-04-26T05:12:21;102111.19;;;0.08;100.00
71791;BME280;59638;52.126;5.434;2023-04-26T05:14:48;102116.97;;;0.17;100.00
71791;BME280;59638;52.126;5.434;2023-04-26T05:17:14;102118.13;;;0.40;100.00
71791;BME280;59638;52.126;5.434;2023-04-26T05:19:40;102127.03;;;0.62;100.00
71791;BME280;59638;52.126;5.434;2023-04-26T05:22:07;102116.81;;;0.86;100.00
71791;BME280;59638;52.126;5.434;2023-04-26T05:24:33;102115.44;;;1.03;100.00
71791;BME280;59638;52.126;5.434;2023-04-26T05:27:00;102118.94;;;1.02;100.00
71791;BME280;59638;52.126;5.434;2023-04-26T05:29:29;102123.34;;;0.99;100.00
71791;BME280;59638;52.126;5.434;2023-04-26T05:31:56;102117.13;;;1.06;100.00
71791;BME280;59638;52.126;5.434;2023-04-26T05:34:23;102117.53;;;1.20;100.00
71791;BME280;59638;52.126;5.434;2023-04-26T05:36:49;102117.88;;;1.38;100.00
71791;BME280;59638;52.126;5.434;2023-04-26T05:39:16;102121.00;;;1.49;100.00
71791;BME280;59638;52.126;5.434;2023-04-26T05:41:44;102119.69;;;1.62;100.00
71791;BME280;59638;52.126;5.434;2023-04-26T05:44:12;102122.44;;;1.85;100.00
71791;BME280;59638;52.126;5.434;2023-04-26T05:46:38;102127.66;;;2.35;100.00
71791;BME280;59638;52.126;5.434;2023-04-26T05:49:05;102114.53;;;3.09;100.00
71791;BME280;59638;52.126;5.434;2023-04-26T05:51:31;102108.63;;;3.71;100.00
71791;BME280;59638;52.126;5.434;2023-04-26T05:53:58;102110.75;;;4.44;100.00
71791;BME280;59638;52.126;5.434;2023-04-26T05:56:24;102104.59;;;5.03;100.00
71791;BME280;59638;52.126;5.434;2023-04-26T05:58:51;102101.19;;;5.73;100.00
71791;BME280;59638;52.126;5.434;2023-04-26T06:01:18;102105.72;;;6.23;100.00
71791;BME280;59638;52.126;5.434;2023-04-26T06:03:45;102104.56;;;6.62;100.00
71791;BME280;59638;52.126;5.434;2023-04-26T06:06:12;102106.03;;;6.84;99.59
71791;BME280;59638;52.126;5.434;2023-04-26T06:08:38;102099.94;;;7.62;97.27
71791;BME280;59638;52.126;5.434;2023-04-26T06:11:05;102100.81;;;8.07;93.69
71791;BME280;59638;52.126;5.434;2023-04-26T06:13:31;102108.25;;;8.59;91.36
71791;BME280;59638;52.126;5.434;2023-04-26T06:15:58;102098.66;;;8.72;88.40
71791;BME280;59638;52.126;5.434;2023-04-26T06:18:24;102101.44;;;8.26;88.01
71791;BME280;59638;52.126;5.434;2023-04-26T06:20:51;102102.50;;;8.08;87.82
71791;BME280;59638;52.126;5.434;2023-04-26T06:23:17;102100.56;;;7.66;87.73
71791;BME280;59638;52.126;5.434;2023-04-26T06:25:45;102108.16;;;7.24;88.39
71791;BME280;59638;52.126;5.434;2023-04-26T06:28:12;102111.16;;;7.02;89.66
71791;BME280;59638;52.126;5.434;2023-04-26T06:30:39;102111.06;;;6.88;90.22
71791;BME280;59638;52.126;5.434;2023-04-26T06:33:05;102115.69;;;6.83;90.14
71791;BME280;59638;52.126;5.434;2023-04-26T06:35:32;102122.31;;;6.90;91.72
71791;BME280;59638;52.126;5.434;2023-04-26T06:37:58;102121.66;;;7.34;90.55
71791;BME280;59638;52.126;5.434;2023-04-26T06:40:24;102117.47;;;7.91;88.91
71791;BME280;59638;52.126;5.434;2023-04-26T06:42:51;102123.16;;;8.44;87.18
71791;BME280;59638;52.126;5.434;2023-04-26T06:45:17;102120.19;;;8.79;85.10
71791;BME280;59638;52.126;5.434;2023-04-26T06:47:44;102117.63;;;9.06;83.41
71791;BME280;59638;52.126;5.434;2023-04-26T06:50:11;102122.25;;;8.74;82.86
71791;BME280;59638;52.126;5.434;2023-04-26T06:52:37;102125.34;;;8.66;82.03
71791;BME280;59638;52.126;5.434;2023-04-26T06:55:04;102130.00;;;8.02;81.86
71791;BME280;59638;52.126;5.434;2023-04-26T06:57:31;102134.22;;;8.05;82.01
71791;BME280;59638;52.126;5.434;2023-04-26T06:59:57;102126.63;;;8.44;81.02
71791;BME280;59638;52.126;5.434;2023-04-26T07:02:23;102129.00;;;9.06;79.54
71791;BME280;59638;52.126;5.434;2023-04-26T07:04:50;102126.47;;;9.05;77.90
71791;BME280;59638;52.126;5.434;2023-04-26T07:07:17;102126.84;;;8.98;80.72
71791;BME280;59638;52.126;5.434;2023-04-26T07:09:44;102133.59;;;9.03;79.28
71791;BME280;59638;52.126;5.434;2023-04-26T07:12:10;102122.31;;;9.01;78.02
71791;BME280;59638;52.126;5.434;2023-04-26T07:14:37;102121.66;;;9.11;77.32
71791;BME280;59638;52.126;5.434;2023-04-26T07:17:09;102125.16;;;9.39;76.04
71791;BME280;59638;52.126;5.434;2023-04-26T07:19:35;102121.25;;;9.17;75.95
71791;BME280;59638;52.126;5.434;2023-04-26T07:22:02;102118.53;;;9.19;76.71
71791;BME280;59638;52.126;5.434;2023-04-26T07:24:29;102123.03;;;9.31;76.77
71791;BME280;59638;52.126;5.434;2023-04-26T07:26:56;102119.94;;;9.51;75.00
71791;BME280;59638;52.126;5.434;2023-04-26T07:29:23;102113.19;;;10.27;73.13
71791;BME280;59638;52.126;5.434;2023-04-26T07:31:49;102115.72;;;10.54;71.97
71791;BME280;59638;52.126;5.434;2023-04-26T07:34:16;102109.59;;;10.53;71.57
71791;BME280;59638;52.126;5.434;2023-04-26T07:36:42;102105.38;;;10.64;73.28
71791;BME280;59638;52.126;5.434;2023-04-26T07:39:08;102116.97;;;10.48;73.40
71791;BME280;59638;52.126;5.434;2023-04-26T07:41:36;102120.22;;;9.74;72.61
71791;BME280;59638;52.126;5.434;2023-04-26T07:44:02;102113.66;;;9.40;72.75
71791;BME280;59638;52.126;5.434;2023-04-26T07:46:29;102124.78;;;9.31;73.60
71791;BME280;59638;52.126;5.434;2023-04-26T07:48:55;102127.88;;;9.37;75.50
71791;BME280;59638;52.126;5.434;2023-04-26T07:51:22;102127.59;;;9.69;73.89
71791;BME280;59638;52.126;5.434;2023-04-26T07:53:48;102124.59;;;9.61;73.37
71791;BME280;59638;52.126;5.434;2023-04-26T07:56:16;102130.59;;;9.09;73.14
71791;BME280;59638;52.126;5.434;2023-04-26T07:58:42;102133.63;;;8.60;76.96
71791;BME280;59638;52.126;5.434;2023-04-26T08:01:09;102131.16;;;8.57;76.17
71791;BME280;59638;52.126;5.434;2023-04-26T08:03:36;102138.69;;;8.77;74.90
71791;BME280;59638;52.126;5.434;2023-04-26T08:06:03;102141.13;;;9.09;73.52
71791;BME280;59638;52.126;5.434;2023-04-26T08:08:30;102139.97;;;9.27;72.41
71791;BME280;59638;52.126;5.434;2023-04-26T08:10:58;102138.03;;;9.43;71.79
71791;BME280;59638;52.126;5.434;2023-04-26T08:13:24;102135.78;;;9.91;70.36
71791;BME280;59638;52.126;5.434;2023-04-26T08:15:54;102125.13;;;9.93;70.53
71791;BME280;59638;52.126;5.434;2023-04-26T08:18:20;102121.69;;;10.94;68.08
71791;BME280;59638;52.126;5.434;2023-04-26T08:20:47;102114.94;;;11.75;64.23
71791;BME280;59638;52.126;5.434;2023-04-26T08:23:13;102125.53;;;11.75;65.64
71791;BME280;59638;52.126;5.434;2023-04-26T08:25:40;102122.22;;;12.19;62.41
71791;BME280;59638;52.126;5.434;2023-04-26T08:28:06;102131.91;;;11.11;65.99
71791;BME280;59638;52.126;5.434;2023-04-26T08:30:33;102134.06;;;10.30;67.68
71791;BME280;59638;52.126;5.434;2023-04-26T08:33:00;102141.66;;;9.82;66.94
71791;BME280;59638;52.126;5.434;2023-04-26T08:35:26;102135.16;;;9.61;66.02
71791;BME280;59638;52.126;5.434;2023-04-26T08:37:53;102134.25;;;9.47;66.67
71791;BME280;59638;52.126;5.434;2023-04-26T08:40:22;102123.59;;;9.49;66.23
71791;BME280;59638;52.126;5.434;2023-04-26T08:42:50;102135.19;;;9.19;67.60
71791;BME280;59638;52.126;5.434;2023-04-26T08:45:21;102136.25;;;8.88;67.54
71791;BME280;59638;52.126;5.434;2023-04-26T08:47:50;102130.78;;;8.63;68.28
71791;BME280;59638;52.126;5.434;2023-04-26T08:50:20;102133.03;;;8.40;69.08
71791;BME280;59638;52.126;5.434;2023-04-26T08:52:49;102138.06;;;8.29;68.55
71791;BME280;59638;52.126;5.434;2023-04-26T08:55:17;102137.56;;;8.23;69.77
71791;BME280;59638;52.126;5.434;2023-04-26T08:57:46;102141.31;;;8.18;70.55
71791;BME280;59638;52.126;5.434;2023-04-26T09:00:14;102137.28;;;8.13;70.31
71791;BME280;59638;52.126;5.434;2023-04-26T09:02:48;102141.38;;;8.03;70.03
71791;BME280;59638;52.126;5.434;2023-04-26T09:05:17;102145.03;;;8.00;71.86
71791;BME280;59638;52.126;5.434;2023-04-26T09:07:49;102140.75;;;7.83;72.05
71791;BME280;59638;52.126;5.434;2023-04-26T09:10:20;102140.94;;;7.80;73.83
71791;BME280;59638;52.126;5.434;2023-04-26T09:12:51;102137.94;;;7.86;74.25
71791;BME280;59638;52.126;5.434;2023-04-26T09:15:20;102133.91;;;7.65;74.54
71791;BME280;59638;52.126;5.434;2023-04-26T09:17:48;102138.25;;;7.66;74.75
71791;BME280;59638;52.126;5.434;2023-04-26T09:20:26;102131.63;;;7.59;74.71
71791;BME280;59638;52.126;5.434;2023-04-26T09:23:06;102137.66;;;7.61;75.79
71791;BME280;59638;52.126;5.434;2023-04-26T09:25:33;102137.22;;;7.69;73.17
71791;BME280;59638;52.126;5.434;2023-04-26T09:28:01;102149.03;;;7.91;72.76
71791;BME280;59638;52.126;5.434;2023-04-26T09:30:29;102137.09;;;8.16;71.90
71791;BME280;59638;52.126;5.434;2023-04-26T09:32:58;102141.78;;;8.25;72.22
71791;BME280;59638;52.126;5.434;2023-04-26T09:35:49;102137.34;;;8.41;70.61
71791;BME280;59638;52.126;5.434;2023-04-26T09:38:17;102140.22;;;8.67;69.26
71791;BME280;59638;52.126;5.434;2023-04-26T09:40:46;102142.94;;;8.80;68.98
71791;BME280;59638;52.126;5.434;2023-04-26T09:43:19;102144.63;;;8.81;69.02
71791;BME280;59638;52.126;5.434;2023-04-26T09:45:51;102142.72;;;9.11;69.35
71791;BME280;59638;52.126;5.434;2023-04-26T09:48:22;102142.97;;;9.21;68.97
71791;BME280;59638;52.126;5.434;2023-04-26T09:50:52;102139.97;;;9.27;68.96
71791;BME280;59638;52.126;5.434;2023-04-26T09:53:52;102131.97;;;9.56;68.29
71791;BME280;59638;52.126;5.434;2023-04-26T09:56:21;102136.03;;;9.74;67.29
71791;BME280;59638;52.126;5.434;2023-04-26T09:58:55;102136.50;;;9.80;65.75
71791;BME280;59638;52.126;5.434;2023-04-26T10:01:31;102136.66;;;9.65;66.20
71791;BME280;59638;52.126;5.434;2023-04-26T10:04:01;102132.47;;;9.75;66.76
71791;BME280;59638;52.126;5.434;2023-04-26T10:06:30;102136.94;;;9.87;65.42
71791;BME280;59638;52.126;5.434;2023-04-26T10:08:57;102137.69;;;10.02;62.79
71791;BME280;59638;52.126;5.434;2023-04-26T10:11:25;102126.75;;;10.21;63.71
71791;BME280;59638;52.126;5.434;2023-04-26T10:13:51;102129.81;;;10.15;62.99
71791;BME280;59638;52.126;5.434;2023-04-26T10:16:20;102118.69;;;10.24;62.79
71791;BME280;59638;52.126;5.434;2023-04-26T10:18:46;102117.94;;;10.47;61.88
71791;BME280;59638;52.126;5.434;2023-04-26T10:21:21;102126.50;;;10.38;61.22
71791;BME280;59638;52.126;5.434;2023-04-26T10:23:49;102122.91;;;10.52;61.50
71791;BME280;59638;52.126;5.434;2023-04-26T10:30:07;102133.34;;;10.28;61.45
71791;BME280;59638;52.126;5.434;2023-04-26T10:35:26;102126.03;;;10.19;60.65
71791;BME280;59638;52.126;5.434;2023-04-26T10:40:33;102120.84;;;9.65;61.29
71791;BME280;59638;52.126;5.434;2023-04-26T10:43:26;102129.44;;;9.54;62.92
71791;BME280;59638;52.126;5.434;2023-04-26T10:45:53;102116.03;;;9.44;62.38
71791;BME280;59638;52.126;5.434;2023-04-26T10:48:30;102122.59;;;9.37;63.03
71791;BME280;59638;52.126;5.434;2023-04-26T10:59:07;102118.31;;;9.76;63.19
71791;BME280;59638;52.126;5.434;2023-04-26T11:01:54;102121.09;;;9.87;61.92
71791;BME280;59638;52.126;5.434;2023-04-26T11:04:20;102118.81;;;10.08;61.64
71791;BME280;59638;52.126;5.434;2023-04-26T11:06:52;102119.53;;;10.37;60.96
71791;BME280;59638;52.126;5.434;2023-04-26T11:12:12;102118.03;;;10.71;60.92
71791;BME280;59638;52.126;5.434;2023-04-26T11:14:43;102116.34;;;10.70;61.90
71791;BME280;59638;52.126;5.434;2023-04-26T11:17:11;102113.59;;;10.84;60.04
71791;BME280;59638;52.126;5.434;2023-04-26T11:19:40;102105.69;;;10.72;59.90
71791;BME280;59638;52.126;5.434;2023-04-26T11:22:07;102107.50;;;10.58;59.77
71791;BME280;59638;52.126;5.434;2023-04-26T11:24:34;102110.22;;;10.70;57.69
71791;BME280;59638;52.126;5.434;2023-04-26T11:27:08;102110.22;;;10.70;57.96
71791;BME280;59638;52.126;5.434;2023-04-26T11:29:38;102099.63;;;10.82;57.97
71791;BME280;59638;52.126;5.434;2023-04-26T11:32:04;102091.22;;;11.01;56.43
71791;BME280;59638;52.126;5.434;2023-04-26T11:34:35;102094.50;;;11.05;56.10
71791;BME280;59638;52.126;5.434;2023-04-26T11:37:02;102099.53;;;11.21;56.70
71791;BME280;59638;52.126;5.434;2023-04-26T11:39:35;102091.28;;;11.25;56.72
71791;BME280;59638;52.126;5.434;2023-04-26T11:42:05;102085.16;;;11.25;55.80
71791;BME280;59638;52.126;5.434;2023-04-26T11:44:33;102088.84;;;11.46;55.86
71791;BME280;59638;52.126;5.434;2023-04-26T11:47:00;102093.38;;;12.38;54.17
71791;BME280;59638;52.126;5.434;2023-04-26T11:49:30;102094.56;;;14.09;51.83
71791;BME280;59638;52.126;5.434;2023-04-26T11:51:57;102081.88;;;14.64;50.48
71791;BME280;59638;52.126;5.434;2023-04-26T11:54:30;102082.59;;;14.66;48.05
71791;BME280;59638;52.126;5.434;2023-04-26T11:56:57;102076.97;;;15.00;48.93
71791;BME280;59638;52.126;5.434;2023-04-26T11:59:29;102083.03;;;15.40;47.20
71791;BME280;59638;52.126;5.434;2023-04-26T12:01:56;102079.53;;;15.20;47.95
71791;BME280;59638;52.126;5.434;2023-04-26T12:04:27;102084.00;;;14.70;48.53
71791;BME280;59638;52.126;5.434;2023-04-26T12:06:57;102080.03;;;14.55;51.60
71791;BME280;59638;52.126;5.434;2023-04-26T12:09:26;102082.16;;;14.19;48.60
71791;BME280;59638;52.126;5.434;2023-04-26T12:11:57;102086.75;;;12.66;52.03
71791;BME280;59638;52.126;5.434;2023-04-26T12:14:30;102084.16;;;11.97;52.36
71791;BME280;59638;52.126;5.434;2023-04-26T12:17:01;102085.44;;;11.33;54.14
71791;BME280;59638;52.126;5.434;2023-04-26T12:19:38;102096.94;;;10.95;54.79
71791;BME280;59638;52.126;5.434;2023-04-26T12:22:06;102101.66;;;10.79;56.50
71791;BME280;59638;52.126;5.434;2023-04-26T12:24:34;102113.38;;;10.49;56.20
71791;BME280;59638;52.126;5.434;2023-04-26T12:27:05;102105.66;;;10.21;57.06
71791;BME280;59638;52.126;5.434;2023-04-26T12:29:34;102106.13;;;9.88;57.03
71791;BME280;59638;52.126;5.434;2023-04-26T12:32:01;102109.47;;;9.77;58.49
71791;BME280;59638;52.126;5.434;2023-04-26T12:34:28;102115.16;;;9.71;59.14
71791;BME280;59638;52.126;5.434;2023-04-26T12:36:54;102111.75;;;9.69;59.76
71791;BME280;59638;52.126;5.434;2023-04-26T12:39:21;102110.59;;;9.60;59.55
71791;BME280;59638;52.126;5.434;2023-04-26T12:41:47;102110.13;;;9.53;60.27
71791;BME280;59638;52.126;5.434;2023-04-26T12:44:14;102115.13;;;9.58;60.10
71791;BME280;59638;52.126;5.434;2023-04-26T12:46:41;102110.53;;;9.47;60.23
71791;BME280;59638;52.126;5.434;2023-04-26T12:49:08;102111.19;;;9.51;60.73
71791;BME280;59638;52.126;5.434;2023-04-26T12:51:34;102115.84;;;9.60;60.61
71791;BME280;59638;52.126;5.434;2023-04-26T12:54:00;102113.22;;;9.60;60.55
71791;BME280;59638;52.126;5.434;2023-04-26T12:56:28;102102.22;;;9.53;60.06
71791;BME280;59638;52.126;5.434;2023-04-26T12:58:54;102108.56;;;9.64;60.00
71791;BME280;59638;52.126;5.434;2023-04-26T13:01:21;102102.66;;;9.87;60.13
71791;BME280;59638;52.126;5.434;2023-04-26T13:03:47;102097.31;;;10.14;59.61
71791;BME280;59638;52.126;5.434;2023-04-26T13:06:14;102104.53;;;10.25;59.05
71791;BME280;59638;52.126;5.434;2023-04-26T13:08:41;102106.84;;;10.42;59.89
71791;BME280;59638;52.126;5.434;2023-04-26T13:11:07;102113.91;;;10.54;59.90
71791;BME280;59638;52.126;5.434;2023-04-26T13:13:34;102100.94;;;10.64;59.80